createdAt,value
2017-02-10T00:00:26.008Z,-56
2017-02-10T00:01:26.093Z,-56
2017-02-10T00:02:26.205Z,-57
2017-02-10T00:03:26.053Z,-56
2017-02-10T00:04:26.029Z,-56
2017-02-10T00:05:26.027Z,-56
2017-02-10T00:06:26.031Z,-58
2017-02-10T00:07:26.068Z,-56
2017-02-10T00:08:26.065Z,-56
2017-02-10T00:09:26.062Z,-57
2017-02-10T00:10:26.069Z,-57
2017-02-10T00:11:26.049Z,-57
2017-02-10T00:12:26.032Z,-56
2017-02-10T00:13:26.143Z,-58
2017-02-10T00:14:26.072Z,-56
2017-02-10T00:15:26.150Z,-57
2017-02-10T00:16:26.139Z,-58
2017-02-10T00:17:26.043Z,-56
2017-02-10T00:18:26.032Z,-57
2017-02-10T00:19:26.075Z,-57
2017-02-10T00:20:26.049Z,-56
2017-02-10T00:21:26.089Z,-56
2017-02-10T00:22:26.032Z,-58
2017-02-10T00:23:26.039Z,-57
2017-02-10T00:24:26.060Z,-56
2017-02-10T00:25:26.146Z,-57
2017-02-10T00:26:26.073Z,-57
2017-02-10T00:27:26.144Z,-57
2017-02-10T00:28:26.103Z,-57
2017-02-10T00:29:26.081Z,-56
2017-02-10T00:30:26.107Z,-57
2017-02-10T00:31:26.056Z,-56
2017-02-10T00:32:26.086Z,-57
2017-02-10T00:33:26.133Z,-57
2017-02-10T00:34:26.087Z,-56
2017-02-10T00:35:26.065Z,-56
2017-02-10T00:36:26.238Z,-56
2017-02-10T00:37:26.150Z,-56
2017-02-10T00:38:26.111Z,-57
2017-02-10T00:39:26.131Z,-57
2017-02-10T00:40:26.083Z,-57
2017-02-10T00:41:26.068Z,-58
2017-02-10T00:42:26.141Z,-56
2017-02-10T00:43:26.114Z,-58
2017-02-10T00:44:26.067Z,-55
2017-02-10T00:45:26.081Z,-56
2017-02-10T00:46:26.088Z,-60
2017-02-10T00:47:26.128Z,-57
2017-02-10T00:48:26.062Z,-57
2017-02-10T00:49:26.026Z,-57
2017-02-10T00:50:26.048Z,-55
2017-02-10T00:51:26.073Z,-57
2017-02-10T00:52:26.094Z,-56
2017-02-10T00:53:26.054Z,-57
2017-02-10T00:54:26.049Z,-57
2017-02-10T00:55:26.035Z,-57
2017-02-10T00:56:26.176Z,-56
2017-02-10T00:57:26.109Z,-56
2017-02-10T00:58:26.189Z,-57
2017-02-10T00:59:26.071Z,-56
2017-02-10T01:00:26.079Z,-58
2017-02-10T01:01:26.075Z,-57
2017-02-10T01:02:26.135Z,-57
2017-02-10T01:03:26.085Z,-56
2017-02-10T01:04:26.099Z,-56
2017-02-10T01:05:26.079Z,-58
2017-02-10T01:06:26.028Z,-56
2017-02-10T01:07:26.116Z,-56
2017-02-10T01:08:26.056Z,-57
2017-02-10T01:09:26.075Z,-56
2017-02-10T01:10:26.059Z,-56
2017-02-10T01:11:26.083Z,-58
2017-02-10T01:12:26.047Z,-57
2017-02-10T01:13:26.078Z,-58
2017-02-10T01:14:26.086Z,-56
2017-02-10T01:15:26.089Z,-57
2017-02-10T01:16:26.160Z,-57
2017-02-10T01:17:26.081Z,-57
2017-02-10T01:18:26.147Z,-56
2017-02-10T01:19:26.067Z,-57
2017-02-10T01:20:26.184Z,-56
2017-02-10T01:21:26.094Z,-57
2017-02-10T01:22:26.178Z,-56
2017-02-10T01:23:26.111Z,-57
2017-02-10T01:24:26.147Z,-56
2017-02-10T01:25:26.108Z,-58
2017-02-10T01:26:26.144Z,-58
2017-02-10T01:27:26.137Z,-57
2017-02-10T01:28:26.094Z,-57
2017-02-10T01:29:26.123Z,-58
2017-02-10T01:30:26.081Z,-58
2017-02-10T01:31:26.088Z,-58
2017-02-10T01:32:26.075Z,-57
2017-02-10T01:33:26.059Z,-58
2017-02-10T01:34:26.071Z,-58
2017-02-10T01:35:26.173Z,-56
2017-02-10T01:36:26.070Z,-57
2017-02-10T01:37:26.043Z,-56
2017-02-10T01:38:26.123Z,-58
2017-02-10T01:39:26.111Z,-57
2017-02-10T01:40:26.201Z,-57
2017-02-10T01:41:26.108Z,-59
2017-02-10T01:42:26.073Z,-57
2017-02-10T01:43:26.103Z,-57
2017-02-10T01:44:26.158Z,-57
2017-02-10T01:45:26.079Z,-56
2017-02-10T01:46:26.191Z,-56
2017-02-10T01:47:26.068Z,-56
2017-02-10T01:48:26.100Z,-54
2017-02-10T01:49:26.145Z,-56
2017-02-10T01:50:26.117Z,-56
2017-02-10T01:51:26.112Z,-56
2017-02-10T01:52:26.091Z,-57
2017-02-10T01:53:26.173Z,-57
2017-02-10T01:54:26.136Z,-58
2017-02-10T01:55:26.117Z,-57
2017-02-10T01:56:26.088Z,-54
2017-02-10T01:57:26.187Z,-57
2017-02-10T01:58:26.112Z,-56
2017-02-10T01:59:26.199Z,-56
2017-02-10T02:00:26.169Z,-54
2017-02-10T02:01:26.131Z,-57
2017-02-10T02:02:26.191Z,-57
2017-02-10T02:03:26.136Z,-57
2017-02-10T02:04:26.185Z,-59
2017-02-10T02:05:26.200Z,-56
2017-02-10T02:06:26.681Z,-53
2017-02-10T02:07:26.171Z,-54
2017-02-10T02:08:26.185Z,-56
2017-02-10T02:09:26.153Z,-58
2017-02-10T02:10:26.149Z,-58
2017-02-10T02:11:26.123Z,-57
2017-02-10T02:12:26.118Z,-57
2017-02-10T02:13:26.137Z,-58
2017-02-10T02:14:26.187Z,-57
2017-02-10T02:15:26.073Z,-58
2017-02-10T02:16:26.169Z,-57
2017-02-10T02:17:26.091Z,-57
2017-02-10T02:18:26.090Z,-56
2017-02-10T02:19:26.527Z,-57
2017-02-10T02:20:26.081Z,-57
2017-02-10T02:21:26.062Z,-57
2017-02-10T02:22:26.078Z,-57
2017-02-10T02:23:26.126Z,-55
2017-02-10T02:24:26.118Z,-56
2017-02-10T02:25:26.081Z,-56
2017-02-10T02:26:26.098Z,-57
2017-02-10T02:27:26.123Z,-56
2017-02-10T02:28:26.117Z,-54
2017-02-10T02:29:26.101Z,-58
2017-02-10T02:30:26.107Z,-58
2017-02-10T02:31:26.104Z,-56
2017-02-10T02:32:26.104Z,-57
2017-02-10T02:33:26.134Z,-56
2017-02-10T02:34:26.112Z,-57
2017-02-10T02:35:26.139Z,-58
2017-02-10T02:36:26.071Z,-57
2017-02-10T02:37:26.094Z,-59
2017-02-10T02:38:26.122Z,-57
2017-02-10T02:39:26.093Z,-56
2017-02-10T02:40:26.103Z,-56
2017-02-10T02:41:26.121Z,-57
2017-02-10T02:42:26.165Z,-56
2017-02-10T02:43:26.118Z,-54
2017-02-10T02:44:26.113Z,-56
2017-02-10T02:45:26.092Z,-57
2017-02-10T02:46:26.135Z,-55
2017-02-10T02:47:26.090Z,-56
2017-02-10T02:48:26.104Z,-58
2017-02-10T02:49:26.135Z,-55
2017-02-10T02:50:26.169Z,-57
2017-02-10T02:51:26.105Z,-57
2017-02-10T02:52:26.116Z,-56
2017-02-10T02:53:26.109Z,-56
2017-02-10T02:54:26.142Z,-56
2017-02-10T02:55:26.136Z,-57
2017-02-10T02:56:26.180Z,-58
2017-02-10T02:57:26.077Z,-56
2017-02-10T02:58:26.125Z,-56
2017-02-10T02:59:26.097Z,-57
2017-02-10T03:00:26.129Z,-57
2017-02-10T03:01:26.115Z,-56
2017-02-10T03:02:26.169Z,-58
2017-02-10T03:03:26.100Z,-56
2017-02-10T03:04:26.095Z,-56
2017-02-10T03:05:26.124Z,-57
2017-02-10T03:06:26.114Z,-57
2017-02-10T03:07:26.107Z,-58
2017-02-10T03:08:26.123Z,-58
2017-02-10T03:09:26.115Z,-57
2017-02-10T03:10:26.111Z,-58
2017-02-10T03:11:26.105Z,-54
2017-02-10T03:12:26.106Z,-56
2017-02-10T03:13:26.145Z,-56
2017-02-10T03:14:26.147Z,-57
2017-02-10T03:15:26.126Z,-57
2017-02-10T03:16:26.173Z,-58
2017-02-10T03:17:26.125Z,-56
2017-02-10T03:18:26.124Z,-57
2017-02-10T03:19:26.128Z,-57
2017-02-10T03:20:26.107Z,-57
2017-02-10T03:21:26.137Z,-57
2017-02-10T03:22:26.121Z,-58
2017-02-10T03:23:26.156Z,-56
2017-02-10T03:24:26.113Z,-58
2017-02-10T03:25:26.114Z,-57
2017-02-10T03:26:26.145Z,-58
2017-02-10T03:27:26.139Z,-57
2017-02-10T03:28:26.150Z,-58
2017-02-10T03:29:26.135Z,-57
2017-02-10T03:30:26.152Z,-58
2017-02-10T03:31:26.139Z,-58
2017-02-10T03:32:26.127Z,-57
2017-02-10T03:33:26.129Z,-57
2017-02-10T03:34:26.134Z,-57
2017-02-10T03:35:26.130Z,-58
2017-02-10T03:36:26.142Z,-57
2017-02-10T03:37:26.113Z,-58
2017-02-10T03:38:26.110Z,-58
2017-02-10T03:39:26.147Z,-57
2017-02-10T03:40:26.112Z,-57
2017-02-10T03:41:26.150Z,-57
2017-02-10T03:42:26.147Z,-57
2017-02-10T03:43:26.125Z,-58
2017-02-10T03:44:26.151Z,-57
2017-02-10T03:45:26.137Z,-56
2017-02-10T03:46:26.148Z,-57
2017-02-10T03:47:26.160Z,-58
2017-02-10T03:48:26.129Z,-57
2017-02-10T03:49:26.174Z,-58
2017-02-10T03:50:26.178Z,-57
2017-02-10T03:51:26.135Z,-57
2017-02-10T03:52:26.201Z,-56
2017-02-10T03:53:26.148Z,-57
2017-02-10T03:54:26.139Z,-55
2017-02-10T03:55:26.185Z,-58
2017-02-10T03:56:26.149Z,-57
2017-02-10T03:57:26.229Z,-57
2017-02-10T03:58:26.161Z,-57
2017-02-10T03:59:26.159Z,-57
2017-02-10T04:00:26.201Z,-58
2017-02-10T04:01:26.144Z,-57
2017-02-10T04:02:26.235Z,-58
2017-02-10T04:03:26.142Z,-56
2017-02-10T04:04:26.151Z,-57
2017-02-10T04:05:26.153Z,-56
2017-02-10T04:06:26.169Z,-56
2017-02-10T04:07:26.196Z,-58
2017-02-10T04:08:26.187Z,-56
2017-02-10T04:09:26.179Z,-57
2017-02-10T04:10:26.177Z,-56
2017-02-10T04:11:26.159Z,-58
2017-02-10T04:12:26.275Z,-55
2017-02-10T04:13:26.148Z,-56
2017-02-10T04:14:26.158Z,-57
2017-02-10T04:15:26.171Z,-57
2017-02-10T04:16:26.163Z,-55
2017-02-10T04:17:26.154Z,-54
2017-02-10T04:18:26.160Z,-57
2017-02-10T04:19:26.166Z,-57
2017-02-10T04:20:26.156Z,-58
2017-02-10T04:21:26.170Z,-57
2017-02-10T04:22:26.168Z,-57
2017-02-10T04:23:26.171Z,-58
2017-02-10T04:24:26.177Z,-59
2017-02-10T04:25:26.165Z,-57
2017-02-10T04:26:26.219Z,-57
2017-02-10T04:27:26.166Z,-57
2017-02-10T04:28:26.190Z,-57
2017-02-10T04:29:26.177Z,-55
2017-02-10T04:30:26.185Z,-56
2017-02-10T04:31:26.169Z,-57
2017-02-10T04:32:26.177Z,-57
2017-02-10T04:33:26.160Z,-59
2017-02-10T04:34:26.157Z,-58
2017-02-10T04:35:26.199Z,-56
2017-02-10T04:36:26.148Z,-57
2017-02-10T04:37:26.176Z,-57
2017-02-10T04:38:26.164Z,-57
2017-02-10T04:39:26.174Z,-57
2017-02-10T04:40:26.182Z,-58
2017-02-10T04:41:26.200Z,-56
2017-02-10T04:42:26.183Z,-57
2017-02-10T04:43:26.171Z,-57
2017-02-10T04:44:26.179Z,-56
2017-02-10T04:45:26.196Z,-57
2017-02-10T04:46:26.174Z,-56
2017-02-10T04:47:26.185Z,-56
2017-02-10T04:48:26.173Z,-55
2017-02-10T04:49:26.323Z,-57
2017-02-10T04:50:26.173Z,-57
2017-02-10T04:51:26.163Z,-56
2017-02-10T04:52:26.189Z,-58
2017-02-10T04:53:26.168Z,-58
2017-02-10T04:54:26.214Z,-57
2017-02-10T04:55:26.207Z,-56
2017-02-10T04:56:26.195Z,-56
2017-02-10T04:57:26.201Z,-58
2017-02-10T04:58:26.206Z,-57
2017-02-10T04:59:26.162Z,-58
2017-02-10T05:00:26.189Z,-57
2017-02-10T05:01:26.204Z,-57
2017-02-10T05:02:26.174Z,-57
2017-02-10T05:03:26.258Z,-57
2017-02-10T05:04:26.195Z,-58
2017-02-10T05:05:26.211Z,-58
2017-02-10T05:06:26.200Z,-55
2017-02-10T05:07:26.190Z,-55
2017-02-10T05:08:26.201Z,-56
2017-02-10T05:09:26.160Z,-57
2017-02-10T05:10:26.193Z,-54
2017-02-10T05:11:26.198Z,-58
2017-02-10T05:12:26.177Z,-56
2017-02-10T05:13:26.195Z,-58
2017-02-10T05:14:26.184Z,-58
2017-02-10T05:15:26.184Z,-57
2017-02-10T05:16:26.206Z,-58
2017-02-10T05:17:26.194Z,-56
2017-02-10T05:18:26.219Z,-57
2017-02-10T05:19:26.182Z,-56
2017-02-10T05:20:26.223Z,-57
2017-02-10T05:21:26.210Z,-58
2017-02-10T05:22:26.227Z,-56
2017-02-10T05:23:26.301Z,-56
2017-02-10T05:24:26.187Z,-57
2017-02-10T05:25:26.249Z,-55
2017-02-10T05:26:26.215Z,-57
2017-02-10T05:27:26.208Z,-58
2017-02-10T05:28:26.214Z,-57
2017-02-10T05:29:26.222Z,-56
2017-02-10T05:30:26.224Z,-56
2017-02-10T05:31:26.196Z,-58
2017-02-10T05:32:26.215Z,-56
2017-02-10T05:33:26.202Z,-57
2017-02-10T05:34:26.208Z,-57
2017-02-10T05:35:26.222Z,-58
2017-02-10T05:36:26.240Z,-57
2017-02-10T05:37:26.191Z,-57
2017-02-10T05:38:26.198Z,-57
2017-02-10T05:39:26.212Z,-57
2017-02-10T05:40:26.203Z,-57
2017-02-10T05:41:26.215Z,-56
2017-02-10T05:42:26.222Z,-56
2017-02-10T05:43:26.204Z,-57
2017-02-10T05:44:26.318Z,-56
2017-02-10T05:45:26.247Z,-56
2017-02-10T05:46:26.238Z,-57
2017-02-10T05:47:26.198Z,-57
2017-02-10T05:48:26.315Z,-57
2017-02-10T05:49:26.208Z,-59
2017-02-10T05:50:26.275Z,-57
2017-02-10T05:51:26.373Z,-55
2017-02-10T05:52:26.236Z,-57
2017-02-10T05:53:26.233Z,-57
2017-02-10T05:54:26.212Z,-57
2017-02-10T05:55:26.215Z,-56
2017-02-10T05:56:26.385Z,-57
2017-02-10T05:57:26.248Z,-58
2017-02-10T05:58:26.275Z,-56
2017-02-10T05:59:26.389Z,-57
2017-02-10T06:00:26.235Z,-56
2017-02-10T06:01:26.287Z,-57
2017-02-10T06:02:26.193Z,-58
2017-02-10T06:03:26.225Z,-58
2017-02-10T06:04:26.308Z,-58
2017-02-10T06:05:26.243Z,-59
2017-02-10T06:06:26.220Z,-57
2017-02-10T06:07:26.247Z,-58
2017-02-10T06:08:26.240Z,-57
2017-02-10T06:09:26.276Z,-56
2017-02-10T06:10:26.262Z,-57
2017-02-10T06:11:26.231Z,-57
2017-02-10T06:12:26.322Z,-58
2017-02-10T06:13:26.237Z,-57
2017-02-10T06:14:26.239Z,-58
2017-02-10T06:15:27.143Z,-54
2017-02-10T06:16:26.228Z,-57
2017-02-10T06:17:26.226Z,-57
2017-02-10T06:18:26.279Z,-56
2017-02-10T06:19:26.268Z,-57
2017-02-10T06:20:26.378Z,-58
2017-02-10T06:21:26.322Z,-58
2017-02-10T06:22:26.343Z,-56
2017-02-10T06:23:26.280Z,-57
2017-02-10T06:24:26.240Z,-58
2017-02-10T06:25:26.230Z,-58
2017-02-10T06:26:26.215Z,-57
2017-02-10T06:27:26.217Z,-58
2017-02-10T06:28:26.308Z,-57
2017-02-10T06:29:26.263Z,-57
2017-02-10T06:30:26.248Z,-58
2017-02-10T06:31:26.255Z,-57
2017-02-10T06:32:26.222Z,-55
2017-02-10T06:33:26.261Z,-57
2017-02-10T06:34:26.245Z,-57
2017-02-10T06:35:26.247Z,-58
2017-02-10T06:36:26.287Z,-57
2017-02-10T06:37:26.245Z,-56
2017-02-10T06:38:26.237Z,-62
2017-02-10T06:39:26.222Z,-57
2017-02-10T06:40:26.280Z,-57
2017-02-10T06:41:26.237Z,-57
2017-02-10T06:42:26.263Z,-58
2017-02-10T06:43:26.230Z,-58
2017-02-10T06:44:26.372Z,-59
2017-02-10T06:45:27.242Z,-57
2017-02-10T06:46:26.250Z,-56
2017-02-10T06:47:26.341Z,-57
2017-02-10T06:48:26.335Z,-57
2017-02-10T06:49:26.303Z,-56
2017-02-10T06:50:26.247Z,-56
2017-02-10T06:51:26.371Z,-57
2017-02-10T06:52:26.252Z,-59
2017-02-10T06:53:26.300Z,-57
2017-02-10T06:54:26.391Z,-58
2017-02-10T06:55:28.424Z,-57
2017-02-10T06:56:26.330Z,-55
2017-02-10T06:57:26.316Z,-58
2017-02-10T06:58:26.255Z,-57
2017-02-10T06:59:26.245Z,-58
2017-02-10T07:00:26.583Z,-57
2017-02-10T07:01:26.472Z,-55
2017-02-10T07:02:26.264Z,-57
2017-02-10T07:03:26.274Z,-58
2017-02-10T07:04:26.333Z,-59
2017-02-10T07:05:26.325Z,-57
2017-02-10T07:06:26.311Z,-58
2017-02-10T07:07:26.281Z,-56
2017-02-10T07:08:26.306Z,-57
2017-02-10T07:09:26.279Z,-58
2017-02-10T07:10:26.428Z,-58
2017-02-10T07:11:27.378Z,-55
2017-02-10T07:12:26.269Z,-57
2017-02-10T07:13:26.247Z,-57
2017-02-10T07:14:26.269Z,-56
2017-02-10T07:15:26.322Z,-57
2017-02-10T07:16:26.280Z,-58
2017-02-10T07:17:26.352Z,-56
2017-02-10T07:18:26.322Z,-57
2017-02-10T07:19:26.580Z,-55
2017-02-10T07:20:26.496Z,-58
2017-02-10T07:21:26.359Z,-56
2017-02-10T07:22:26.631Z,-59
2017-02-10T07:23:26.781Z,-57
2017-02-10T07:24:26.902Z,-57
2017-02-10T07:25:26.323Z,-56
2017-02-10T07:26:26.488Z,-55
2017-02-10T07:27:26.282Z,-57
2017-02-10T07:28:26.424Z,-56
2017-02-10T07:29:26.420Z,-56
2017-02-10T07:30:26.530Z,-61
2017-02-10T07:31:26.332Z,-57
2017-02-10T07:32:26.271Z,-57
2017-02-10T07:33:26.670Z,-58
2017-02-10T07:34:26.322Z,-58
2017-02-10T07:35:27.004Z,-65
2017-02-10T07:36:26.516Z,-58
2017-02-10T07:37:27.214Z,-59
2017-02-10T07:38:26.277Z,-56
2017-02-10T07:39:26.508Z,-57
2017-02-10T07:40:26.343Z,-56
2017-02-10T07:41:27.261Z,-56
2017-02-10T07:42:26.512Z,-56
2017-02-10T07:43:26.475Z,-58
2017-02-10T07:44:26.840Z,-58
2017-02-10T07:45:26.466Z,-57
2017-02-10T07:46:26.423Z,-58
2017-02-10T07:47:26.393Z,-56
2017-02-10T07:48:26.269Z,-54
2017-02-10T07:49:26.298Z,-55
2017-02-10T07:50:26.411Z,-56
2017-02-10T07:51:26.565Z,-58
2017-02-10T07:52:26.377Z,-60
2017-02-10T07:53:26.263Z,-57
2017-02-10T07:54:26.306Z,-57
2017-02-10T07:55:26.392Z,-57
2017-02-10T07:56:26.344Z,-57
2017-02-10T07:57:26.313Z,-57
2017-02-10T07:58:26.367Z,-56
2017-02-10T07:59:26.293Z,-57
2017-02-10T08:00:26.309Z,-58
2017-02-10T08:01:26.524Z,-57
2017-02-10T08:02:26.749Z,-58
2017-02-10T08:03:26.294Z,-56
2017-02-10T08:04:27.156Z,-55
2017-02-10T08:05:26.647Z,-58
2017-02-10T08:06:26.691Z,-57
2017-02-10T08:07:27.463Z,-59
2017-02-10T08:08:26.417Z,-56
2017-02-10T08:09:26.724Z,-57
2017-02-10T08:10:26.508Z,-58
2017-02-10T08:11:26.364Z,-58
2017-02-10T08:12:26.904Z,-58
2017-02-10T08:13:26.370Z,-58
2017-02-10T08:14:26.303Z,-58
2017-02-10T08:15:26.358Z,-57
2017-02-10T08:16:26.273Z,-56
2017-02-10T08:17:26.402Z,-56
2017-02-10T08:18:26.272Z,-57
2017-02-10T08:19:26.338Z,-58
2017-02-10T08:20:26.406Z,-57
2017-02-10T08:21:26.298Z,-57
2017-02-10T08:22:26.386Z,-59
2017-02-10T08:23:26.306Z,-59
2017-02-10T08:24:26.294Z,-57
2017-02-10T08:25:26.341Z,-57
2017-02-10T08:26:26.318Z,-58
2017-02-10T08:27:26.389Z,-57
2017-02-10T08:28:26.391Z,-58
2017-02-10T08:29:26.287Z,-57
2017-02-10T08:30:26.337Z,-58
2017-02-10T08:31:26.318Z,-58
2017-02-10T08:32:26.311Z,-57
2017-02-10T08:33:26.310Z,-57
2017-02-10T08:34:26.390Z,-57
2017-02-10T08:35:26.383Z,-54
2017-02-10T08:36:26.324Z,-56
2017-02-10T08:37:26.355Z,-57
2017-02-10T08:38:26.294Z,-57
2017-02-10T08:39:26.966Z,-58
2017-02-10T08:40:27.462Z,-56
2017-02-10T08:41:26.377Z,-59
2017-02-10T08:42:26.363Z,-57
2017-02-10T08:43:26.392Z,-58
2017-02-10T08:44:26.505Z,-57
2017-02-10T08:45:26.353Z,-56
2017-02-10T08:46:26.354Z,-57
2017-02-10T08:47:26.536Z,-57
2017-02-10T08:48:26.344Z,-58
2017-02-10T08:49:26.354Z,-57
2017-02-10T08:50:26.673Z,-58
2017-02-10T08:51:26.347Z,-58
2017-02-10T08:52:26.362Z,-57
2017-02-10T08:53:26.404Z,-56
2017-02-10T08:54:26.310Z,-57
2017-02-10T08:55:26.335Z,-58
2017-02-10T08:56:26.927Z,-54
2017-02-10T08:57:26.300Z,-57
2017-02-10T08:58:26.300Z,-57
2017-02-10T08:59:26.357Z,-55
2017-02-10T09:00:26.355Z,-57
2017-02-10T09:01:26.487Z,-59
2017-02-10T09:02:26.452Z,-57
2017-02-10T09:03:26.308Z,-57
2017-02-10T09:04:26.345Z,-56
2017-02-10T09:05:26.379Z,-58
2017-02-10T09:06:26.342Z,-58
2017-02-10T09:07:26.354Z,-57
2017-02-10T09:08:26.317Z,-57
2017-02-10T09:09:26.441Z,-56
2017-02-10T09:10:26.345Z,-59
2017-02-10T09:11:26.332Z,-58
2017-02-10T09:12:26.359Z,-56
2017-02-10T09:13:26.376Z,-57
2017-02-10T09:14:26.331Z,-57
2017-02-10T09:15:26.367Z,-58
2017-02-10T09:16:26.319Z,-57
2017-02-10T09:17:26.399Z,-58
2017-02-10T09:18:26.349Z,-57
2017-02-10T09:19:26.307Z,-57
2017-02-10T09:20:26.401Z,-57
2017-02-10T09:21:26.362Z,-56
2017-02-10T09:22:26.638Z,-58
2017-02-10T09:23:26.331Z,-58
2017-02-10T09:24:26.684Z,-57
2017-02-10T09:25:26.323Z,-57
2017-02-10T09:26:26.679Z,-58
2017-02-10T09:27:26.336Z,-58
2017-02-10T09:28:26.362Z,-56
2017-02-10T09:29:26.320Z,-56
2017-02-10T09:30:26.319Z,-56
2017-02-10T09:31:26.473Z,-59
2017-02-10T09:32:26.388Z,-58
2017-02-10T09:33:26.429Z,-57
2017-02-10T09:34:26.403Z,-59
2017-02-10T09:35:26.339Z,-59
2017-02-10T09:36:26.416Z,-59
2017-02-10T09:37:26.349Z,-57
2017-02-10T09:38:26.328Z,-60
2017-02-10T09:39:26.435Z,-62
2017-02-10T09:40:31.634Z,-62
2017-02-10T09:41:26.454Z,-62
2017-02-10T09:42:26.373Z,-61
2017-02-10T09:43:26.363Z,-56
2017-02-10T09:44:26.347Z,-57
2017-02-10T09:45:26.559Z,-60
2017-02-10T09:46:26.433Z,-61
2017-02-10T09:47:26.602Z,-65
2017-02-10T09:48:26.403Z,-60
2017-02-10T09:49:26.432Z,-61
2017-02-10T09:50:26.424Z,-62
2017-02-10T09:51:26.412Z,-62
2017-02-10T09:52:26.361Z,-61
2017-02-10T09:53:26.396Z,-65
2017-02-10T09:54:26.351Z,-62
2017-02-10T09:55:26.547Z,-62
2017-02-10T09:56:26.370Z,-61
2017-02-10T09:57:34.254Z,-61
2017-02-10T09:58:31.938Z,-59
2017-02-10T09:59:32.088Z,-62
2017-02-10T10:00:33.814Z,-62
2017-02-10T10:01:33.040Z,-61
2017-02-10T10:02:32.236Z,-61
2017-02-10T10:03:32.449Z,-63
2017-02-10T10:04:31.832Z,-63
2017-02-10T10:05:31.845Z,-62
2017-02-10T10:06:31.392Z,-64
2017-02-10T10:07:31.631Z,-62
2017-02-10T10:08:31.287Z,-63
2017-02-10T10:09:32.701Z,-61
2017-02-10T10:10:32.749Z,-60
2017-02-10T10:11:31.776Z,-61
2017-02-10T10:12:32.638Z,-62
2017-02-10T10:13:33.611Z,-61
2017-02-10T10:14:34.227Z,-62
2017-02-10T10:15:32.424Z,-57
2017-02-10T10:16:33.673Z,-60
2017-02-10T10:17:32.136Z,-60
2017-02-10T10:18:32.484Z,-60
2017-02-10T10:19:34.203Z,-60
2017-02-10T10:20:33.714Z,-60
2017-02-10T10:21:31.654Z,-62
2017-02-10T10:22:32.719Z,-60
2017-02-10T10:23:31.684Z,-61
2017-02-10T10:24:32.065Z,-61
2017-02-10T10:25:31.862Z,-61
2017-02-10T10:26:32.538Z,-62
2017-02-10T10:27:33.455Z,-62
2017-02-10T10:28:32.911Z,-58
2017-02-10T10:29:32.106Z,-62
2017-02-10T10:30:31.947Z,-62
2017-02-10T10:31:34.567Z,-60
2017-02-10T10:32:32.121Z,-62
2017-02-10T10:33:30.616Z,-59
2017-02-10T10:34:30.804Z,-62
2017-02-10T10:35:32.713Z,-60
2017-02-10T10:36:38.881Z,-60
2017-02-10T10:37:32.165Z,-62
2017-02-10T10:38:37.201Z,-60
2017-02-10T10:39:33.713Z,-61
2017-02-10T10:40:34.446Z,-62
2017-02-10T10:41:32.506Z,-65
2017-02-10T10:42:32.128Z,-57
2017-02-10T10:43:33.494Z,-58
2017-02-10T10:44:32.503Z,-58
2017-02-10T10:45:32.712Z,-57
2017-02-10T10:46:35.940Z,-60
2017-02-10T10:47:33.253Z,-59
2017-02-10T10:48:32.762Z,-61
2017-02-10T10:49:31.035Z,-60
2017-02-10T10:50:33.897Z,-59
2017-02-10T10:51:32.177Z,-59
2017-02-10T10:52:34.152Z,-61
2017-02-10T10:53:33.214Z,-62
2017-02-10T10:54:31.993Z,-61
2017-02-10T10:55:32.952Z,-61
2017-02-10T10:56:36.051Z,-63
2017-02-10T10:57:32.853Z,-62
2017-02-10T10:58:33.846Z,-64
2017-02-10T10:59:32.237Z,-61
2017-02-10T11:00:33.060Z,-63
2017-02-10T11:01:33.105Z,-60
2017-02-10T11:02:28.983Z,-60
2017-02-10T11:03:32.173Z,-59
2017-02-10T11:04:34.163Z,-60
2017-02-10T11:05:34.351Z,-62
2017-02-10T11:06:30.758Z,-62
2017-02-10T11:07:34.737Z,-63
2017-02-10T11:08:33.360Z,-64
2017-02-10T11:09:34.001Z,-61
2017-02-10T11:10:35.128Z,-62
2017-02-10T11:11:28.143Z,-62
2017-02-10T11:12:26.533Z,-59
2017-02-10T11:13:26.983Z,-62
2017-02-10T11:14:26.666Z,-62
2017-02-10T11:15:26.738Z,-63
2017-02-10T11:16:27.727Z,-63
2017-02-10T11:17:26.438Z,-62
2017-02-10T11:18:26.449Z,-63
2017-02-10T11:19:36.659Z,-59
2017-02-10T11:20:26.452Z,-63
2017-02-10T11:21:26.428Z,-60
2017-02-10T11:22:26.660Z,-61
2017-02-10T11:23:26.622Z,-58
2017-02-10T11:24:27.247Z,-62
2017-02-10T11:25:28.618Z,-66
2017-02-10T11:26:26.606Z,-65
2017-02-10T11:27:26.468Z,-64
2017-02-10T11:28:27.272Z,-65
2017-02-10T11:29:26.447Z,-64
2017-02-10T11:30:27.404Z,-64
2017-02-10T11:31:26.446Z,-63
2017-02-10T11:32:26.439Z,-63
2017-02-10T11:33:26.432Z,-64
2017-02-10T11:34:28.070Z,-64
2017-02-10T11:35:26.746Z,-65
2017-02-10T11:36:26.458Z,-65
2017-02-10T11:37:26.596Z,-66
2017-02-10T11:38:26.490Z,-65
2017-02-10T11:39:26.488Z,-63
2017-02-10T11:40:26.593Z,-65
2017-02-10T11:41:27.189Z,-62
2017-02-10T11:42:27.827Z,-64
2017-02-10T11:43:27.255Z,-65
2017-02-10T11:44:26.633Z,-63
2017-02-10T11:45:26.587Z,-63
2017-02-10T11:46:26.440Z,-63
2017-02-10T11:47:26.558Z,-61
2017-02-10T11:48:26.756Z,-62
2017-02-10T11:49:27.188Z,-61
2017-02-10T11:50:27.713Z,-62
2017-02-10T11:51:26.618Z,-64
2017-02-10T11:52:26.455Z,-62
2017-02-10T11:53:26.421Z,-62
2017-02-10T11:54:26.439Z,-60
2017-02-10T11:55:26.453Z,-63
2017-02-10T11:56:26.503Z,-62
2017-02-10T11:57:26.578Z,-61
2017-02-10T11:58:26.452Z,-61
2017-02-10T11:59:26.810Z,-59
2017-02-10T12:00:26.584Z,-57
2017-02-10T12:01:26.461Z,-58
2017-02-10T12:02:26.425Z,-59
2017-02-10T12:03:26.433Z,-59
2017-02-10T12:04:26.477Z,-59
2017-02-10T12:05:26.434Z,-57
2017-02-10T12:06:26.431Z,-57
2017-02-10T12:07:27.419Z,-59
2017-02-10T12:08:26.486Z,-58
2017-02-10T12:09:26.450Z,-58
2017-02-10T12:10:26.417Z,-58
2017-02-10T12:11:26.452Z,-58
2017-02-10T12:12:26.455Z,-57
2017-02-10T12:13:26.479Z,-58
2017-02-10T12:14:26.458Z,-58
2017-02-10T12:15:26.479Z,-58
2017-02-10T12:16:26.438Z,-58
2017-02-10T12:17:26.507Z,-58
2017-02-10T12:18:26.460Z,-57
2017-02-10T12:19:26.442Z,-62
2017-02-10T12:20:26.454Z,-58
2017-02-10T12:21:26.462Z,-57
2017-02-10T12:22:26.454Z,-58
2017-02-10T12:23:26.436Z,-57
2017-02-10T12:24:26.660Z,-59
2017-02-10T12:25:26.435Z,-57
2017-02-10T12:26:26.425Z,-56
2017-02-10T12:27:26.490Z,-57
2017-02-10T12:28:26.468Z,-57
2017-02-10T12:29:26.446Z,-58
2017-02-10T12:30:26.437Z,-59
2017-02-10T12:31:26.435Z,-57
2017-02-10T12:32:26.982Z,-58
2017-02-10T12:33:26.456Z,-57
2017-02-10T12:34:26.467Z,-58
2017-02-10T12:35:26.421Z,-59
2017-02-10T12:36:26.457Z,-63
2017-02-10T12:37:26.486Z,-63
2017-02-10T12:38:26.472Z,-62
2017-02-10T12:39:26.496Z,-63
2017-02-10T12:40:26.478Z,-63
2017-02-10T12:41:26.463Z,-63
2017-02-10T12:42:26.429Z,-63
2017-02-10T12:43:26.459Z,-63
2017-02-10T12:44:26.452Z,-63
2017-02-10T12:45:26.475Z,-60
2017-02-10T12:46:26.497Z,-63
2017-02-10T12:47:26.443Z,-62
2017-02-10T12:48:26.473Z,-65
2017-02-10T12:49:26.446Z,-64
2017-02-10T12:50:26.452Z,-57
2017-02-10T12:51:26.551Z,-63
2017-02-10T12:52:26.462Z,-61
2017-02-10T12:53:26.455Z,-60
2017-02-10T12:54:26.479Z,-62
2017-02-10T12:55:26.459Z,-62
2017-02-10T12:56:26.490Z,-62
2017-02-10T12:57:26.464Z,-63
2017-02-10T12:58:26.483Z,-62
2017-02-10T12:59:26.436Z,-62
2017-02-10T13:00:26.466Z,-62
2017-02-10T13:01:26.467Z,-62
2017-02-10T13:02:26.446Z,-61
2017-02-10T13:03:26.449Z,-61
2017-02-10T13:04:26.509Z,-62
2017-02-10T13:05:26.462Z,-63
2017-02-10T13:06:26.443Z,-61
2017-02-10T13:07:26.449Z,-62
2017-02-10T13:08:26.443Z,-63
2017-02-10T13:09:26.485Z,-62
2017-02-10T13:10:26.503Z,-62
2017-02-10T13:11:26.489Z,-61
2017-02-10T13:12:26.513Z,-62
2017-02-10T13:13:26.492Z,-61
2017-02-10T13:14:26.472Z,-63
2017-02-10T13:15:26.478Z,-63
2017-02-10T13:16:26.481Z,-63
2017-02-10T13:17:26.489Z,-63
2017-02-10T13:18:26.502Z,-65
2017-02-10T13:19:26.472Z,-65
2017-02-10T13:20:26.467Z,-65
2017-02-10T13:21:26.504Z,-66
2017-02-10T13:22:26.446Z,-62
2017-02-10T13:23:26.490Z,-64
2017-02-10T13:24:26.460Z,-63
2017-02-10T13:25:26.507Z,-62
2017-02-10T13:26:26.479Z,-61
2017-02-10T13:27:26.482Z,-61
2017-02-10T13:28:26.496Z,-62
2017-02-10T13:29:26.514Z,-61
2017-02-10T13:30:26.497Z,-64
2017-02-10T13:31:26.521Z,-62
2017-02-10T13:32:26.484Z,-63
2017-02-10T13:33:26.487Z,-63
2017-02-10T13:34:26.495Z,-64
2017-02-10T13:35:26.498Z,-62
2017-02-10T13:36:26.501Z,-62
2017-02-10T13:37:26.480Z,-63
2017-02-10T13:38:26.490Z,-62
2017-02-10T13:39:26.486Z,-62
2017-02-10T13:40:26.517Z,-64
2017-02-10T13:41:26.486Z,-63
2017-02-10T13:42:26.530Z,-62
2017-02-10T13:43:26.523Z,-64
2017-02-10T13:44:26.512Z,-64
2017-02-10T13:45:26.473Z,-58
2017-02-10T13:46:26.479Z,-56